Time;durP1;ratioP1;P1;durP2;ratioP2;P2;SDS_P1;SDS_P2;PMS_P1;PMS_P2;Temp;Humidity;BMP_temperature;BMP_pressure;BME280_temperature;BME280_humidity;BME280_pressure;Samples;Min_cycle;Max_cycle;Signal;HPM_P1;HPM_P2
2023/06/16 05:51:08;;;;;;;;;11.50;11.50;;;;;22.91;42.94;101246.69;6267629;22;45431;-68
2023/06/16 05:57:40;;;;;;;;;;;;;;;;;;;;;
2023/06/16 06:07:57;;;;;;;;;;;;;;;;;;;;;
2023/06/16 06:17:09;;;;;;;;;;;;;;;;;;;;;
2023/06/16 06:23:26;;;;;;;;;14.50;14.50;;;;;23.42;42.46;101297.28;6261713;22;45262;-69
2023/06/16 06:26:14;;;;;;;;;13.75;13.00;;;;;23.31;41.80;101280.88;6273964;22;45615;-69
2023/06/16 07:06:53;;;;;;;;;;;;;;;;;;;;;
2023/06/16 07:13:09;;;;;;;;;;;;;;;;;;;;;
2023/06/16 07:35:10;;;;;;;;;16.00;14.25;;;;;24.17;38.88;101320.47;6231002;22;45545;-68
2023/06/16 07:38:04;;;;;;;;;16.50;16.50;;;;;24.25;39.05;101333.44;6243904;22;45469;-69
2023/06/16 07:40:52;;;;;;;;;17.25;17.00;;;;;24.49;39.25;101359.72;6246333;22;46242;-69
2023/06/16 07:43:42;;;;;;;;;15.00;15.00;;;;;24.38;38.90;101334.19;6269567;22;45910;-69
2023/06/16 07:46:42;;;;;;;;;;;;;;;;;;;;;
2023/06/16 07:49:20;;;;;;;;;;;;;;;;;;;;;
2023/06/16 07:51:46;;;;;;;;;14.50;14.00;;;;;24.49;38.51;101322.41;6245046;22;74274;-69
2023/06/16 07:54:35;;;;;;;;;13.75;12.50;;;;;24.69;38.70;101344.47;6297819;22;45207;-69
2023/06/16 07:57:39;;;;;;;;;;;;;;;;;;;;;
2023/06/16 08:00:11;;;;;;;;;17.25;17.25;;;;;24.99;38.23;101360.16;6306912;22;73290;-68
2023/06/16 08:03:26;;;;;;;;;19.00;18.25;;;;;24.91;37.74;101338.13;6307909;22;45319;-70
2023/06/16 08:05:52;;;;;;;;;17.75;16.25;;;;;25.07;38.10;101351.34;6276932;22;45448;-70
2023/06/16 08:08:18;;;;;;;;;14.75;14.75;;;;;25.00;37.85;101331.00;6279728;22;45319;-71
2023/06/16 08:10:44;;;;;;;;;17.25;17.25;;;;;25.07;38.00;101330.34;6308344;22;45445;-72
2023/06/16 08:13:10;;;;;;;;;17.00;17.00;;;;;25.18;37.38;101342.25;6308305;22;46132;-70
2023/06/16 08:15:35;;;;;;;;;17.00;17.00;;;;;25.23;38.32;101329.91;6280168;22;45381;-70
2023/06/16 08:18:01;;;;;;;;;17.50;15.75;;;;;25.31;37.76;101327.44;6308254;22;45302;-70
2023/06/16 08:20:26;;;;;;;;;20.00;16.00;;;;;25.41;37.38;101324.78;6304102;22;45453;-70
2023/06/16 08:22:51;;;;;;;;;16.75;16.50;;;;;25.28;36.88;101291.31;6306212;22;46351;-71
2023/06/16 08:25:17;;;;;;;;;12.25;10.00;;;;;25.50;36.87;101314.91;6306958;22;45390;-71
2023/06/16 08:27:42;;;;;;;;;15.00;15.00;;;;;25.61;36.57;101322.16;6277770;22;45377;-70
2023/06/16 08:30:09;;;;;;;;;16.25;15.00;;;;;25.52;36.99;101307.44;6306105;22;45744;-70
2023/06/16 08:32:34;;;;;;;;;14.75;14.75;;;;;25.70;36.11;101315.91;6305272;22;46109;-70
2023/06/16 08:35:00;;;;;;;;;21.00;17.75;;;;;25.69;36.45;101306.84;6307851;22;45985;-68
2023/06/16 08:37:26;;;;;;;;;14.50;14.50;;;;;25.79;36.18;101312.34;6306267;22;45312;-70
2023/06/16 08:39:55;;;;;;;;;18.25;16.75;;;;;25.93;36.15;101329.41;6308140;22;45276;-70
2023/06/16 08:42:20;;;;;;;;;9.25;9.25;;;;;26.04;36.55;101329.38;6307399;22;46249;-70
2023/06/16 08:44:46;;;;;;;;;15.50;14.25;;;;;26.08;35.49;101333.56;6280146;22;45786;-70
2023/06/16 08:47:15;;;;;;;;;11.75;11.75;;;;;26.10;35.23;101317.88;6308071;22;45527;-71
2023/06/16 08:49:44;;;;;;;;;16.75;16.00;;;;;26.04;35.00;101302.91;6308491;22;45219;-72
2023/06/16 08:52:16;;;;;;;;;15.25;14.50;;;;;26.09;35.28;101301.59;6307679;22;45580;-70
2023/06/16 08:54:48;;;;;;;;;17.25;14.00;;;;;26.10;34.34;101298.75;6307834;22;45452;-70
2023/06/16 08:57:14;;;;;;;;;16.00;15.00;;;;;26.32;34.70;101321.44;6307755;22;45565;-70
2023/06/16 08:59:44;;;;;;;;;16.00;14.25;;;;;26.18;34.29;101298.91;6306290;22;45458;-70
2023/06/16 09:02:10;;;;;;;;;15.00;14.00;;;;;26.15;34.47;101280.03;6305859;22;45394;-70
2023/06/16 09:04:38;;;;;;;;;12.00;12.00;;;;;26.21;33.79;101289.56;6307723;22;45369;-70
2023/06/16 09:07:04;;;;;;;;;8.25;8.25;;;;;26.20;33.45;101280.47;6307277;22;45387;-70
2023/06/16 09:09:30;;;;;;;;;11.00;11.00;;;;;26.31;32.90;101284.13;6280181;22;45665;-70
2023/06/16 09:12:12;;;;;;;;;12.00;12.00;;;;;26.42;32.51;101301.28;6278984;22;47965;-70
2023/06/16 09:14:38;;;;;;;;;12.75;9.75;;;;;26.42;32.72;101301.28;6307288;22;45905;-70
2023/06/16 09:17:07;;;;;;;;;9.75;8.50;;;;;26.54;32.68;101307.50;6304940;22;45390;-70
2023/06/16 09:19:37;;;;;;;;;11.25;9.75;;;;;26.56;32.39;101297.31;6276138;22;45527;-70
2023/06/16 09:22:02;;;;;;;;;8.50;8.50;;;;;26.70;31.34;101331.66;6302108;22;46133;-71
2023/06/16 09:24:29;;;;;;;;;12.25;12.25;;;;;26.60;31.16;101306.09;6303646;22;45534;-70
2023/06/16 09:27:00;;;;;;;;;7.75;7.75;;;;;26.53;31.49;101283.91;6277688;22;45787;-71
2023/06/16 09:29:28;;;;;;;;;12.50;12.50;;;;;26.65;31.68;101297.47;6303164;22;45402;-71
2023/06/16 09:32:05;;;;;;;;;11.75;9.50;;;;;26.67;31.48;101284.53;6305462;22;46076;-71
2023/06/16 09:34:32;;;;;;;;;13.75;12.50;;;;;26.91;31.43;101320.59;6305723;22;45423;-71
2023/06/16 09:36:58;;;;;;;;;10.00;9.00;;;;;26.74;31.19;101278.31;6277188;22;45407;-71
2023/06/16 09:39:24;;;;;;;;;11.00;11.00;;;;;26.80;30.54;101280.50;6306561;22;45201;-71
2023/06/16 09:41:51;;;;;;;;;11.50;10.25;;;;;26.92;30.77;101303.16;6305466;22;46374;-69
2023/06/16 09:44:17;;;;;;;;;9.25;9.25;;;;;26.91;30.48;101295.94;6276787;22;45343;-71
2023/06/16 09:46:43;;;;;;;;;8.25;8.00;;;;;27.08;30.14;101307.19;6305307;22;45341;-71
2023/06/16 09:49:19;;;;;;;;;11.25;11.25;;;;;27.01;30.44;101284.97;6276797;22;45509;-70
2023/06/16 09:51:52;;;;;;;;;10.75;9.25;;;;;26.92;30.38;101262.06;6304798;22;46077;-68
2023/06/16 09:54:24;;;;;;;;;10.75;9.25;;;;;27.22;30.08;101304.03;6304106;22;45702;-70
2023/06/16 09:56:55;;;;;;;;;9.50;9.50;;;;;27.20;30.26;101288.72;6276894;22;45696;-70
2023/06/16 09:59:23;;;;;;;;;9.50;8.75;;;;;27.23;29.84;101293.91;6305315;22;45213;-69
2023/06/16 10:01:53;;;;;;;;;13.00;10.75;;;;;27.23;29.48;101281.09;6303455;22;46319;-70
2023/06/16 10:04:21;;;;;;;;;10.25;10.25;;;;;27.44;29.99;101310.25;6305017;22;45415;-70
2023/06/16 10:07:00;;;;;;;;;12.00;11.50;;;;;27.26;29.82;101285.41;6303335;22;45351;-70
2023/06/16 10:09:41;;;;;;;;;13.00;13.00;;;;;27.34;29.68;101289.19;6304273;22;45410;-70
2023/06/16 10:12:12;;;;;;;;;12.00;11.00;;;;;27.44;29.65;101307.50;6304732;22;45422;-70
2023/06/16 10:14:40;;;;;;;;;10.00;10.00;;;;;27.28;28.92;101278.78;6302649;22;45704;-63
2023/06/16 10:17:09;;;;;;;;;11.25;9.25;;;;;27.35;29.11;101282.69;6303886;22;45367;-64
2023/06/16 10:19:37;;;;;;;;;10.00;10.00;;;;;27.50;29.20;101302.31;6303952;22;45189;-63
2023/06/16 10:22:03;;;;;;;;;4.00;3.25;;;;;27.51;28.77;101303.16;6274889;22;47237;-63
2023/06/16 10:24:30;;;;;;;;;12.50;11.75;;;;;27.51;29.11;101303.16;6299334;22;45914;-63
2023/06/16 10:26:56;;;;;;;;;10.25;9.75;;;;;27.51;28.94;101293.03;6303051;22;45512;-63
2023/06/16 10:29:25;;;;;;;;;14.00;13.00;;;;;27.57;29.15;101291.63;6302236;22;45371;-63
2023/06/16 10:32:02;;;;;;;;;13.50;10.50;;;;;27.63;28.89;101295.63;6301517;22;46047;-63
2023/06/16 10:34:27;;;;;;;;;12.00;10.75;;;;;27.68;28.85;101298.78;6302960;22;45795;-63
2023/06/16 10:36:54;;;;;;;;;13.50;11.50;;;;;27.63;28.87;101280.06;6304227;22;45358;-63
2023/06/16 10:39:20;;;;;;;;;15.50;12.00;;;;;27.76;28.64;101298.06;6302017;22;45646;-63
2023/06/16 10:41:51;;;;;;;;;9.50;8.75;;;;;27.79;28.88;101290.38;6301845;22;45400;-63
2023/06/16 10:44:25;;;;;;;;;13.00;13.00;;;;;27.81;28.86;101285.63;6301871;22;45354;-63
2023/06/16 10:47:12;;;;;;;;;11.00;11.00;;;;;27.85;29.38;101292.56;6302526;22;45818;-63
2023/06/16 10:49:55;;;;;;;;;12.25;12.25;;;;;27.91;29.10;101294.66;6303174;22;45535;-63
2023/06/16 10:52:49;;;;;;;;;13.25;12.00;;;;;27.94;28.56;101287.22;6301995;22;45740;-63
2023/06/16 10:55:31;;;;;;;;;14.00;12.50;;;;;28.00;28.27;101292.06;6302796;22;45454;-63
2023/06/16 10:58:20;;;;;;;;;13.75;13.50;;;;;28.03;28.40;101283.56;6302339;22;45681;-63
2023/06/16 11:01:24;;;;;;;;;12.00;11.00;;;;;28.05;28.39;101281.50;6283605;22;45512;-63
2023/06/16 11:04:01;;;;;;;;;13.50;13.50;;;;;28.07;27.99;101291.34;6301838;22;47449;-63
2023/06/16 11:06:27;;;;;;;;;11.75;11.75;;;;;28.03;28.08;101278.06;6302671;22;45447;-63
2023/06/16 11:08:55;;;;;;;;;11.75;11.25;;;;;28.09;27.96;101283.81;6302462;22;45429;-63
2023/06/16 11:11:21;;;;;;;;;10.25;10.25;;;;;28.11;28.31;101277.31;6301850;22;45519;-63
2023/06/16 11:13:47;;;;;;;;;14.00;13.00;;;;;28.17;28.05;101283.06;6303641;22;45390;-63
2023/06/16 11:16:12;;;;;;;;;14.00;13.25;;;;;28.21;28.03;101286.38;6301164;22;45799;-63
2023/06/16 11:18:38;;;;;;;;;16.00;14.50;;;;;28.23;27.51;101281.59;6303934;22;45425;-63
2023/06/16 11:21:06;;;;;;;;;15.00;14.50;;;;;28.21;27.50;101281.72;6304876;22;45256;-63
2023/06/16 11:23:32;;;;;;;;;12.00;12.00;;;;;28.18;27.40;101275.69;6303035;22;46200;-63
2023/06/16 11:26:15;;;;;;;;;15.50;15.00;;;;;28.16;27.78;101264.00;6303607;22;45334;-63
2023/06/16 11:28:42;;;;;;;;;13.00;13.00;;;;;28.19;27.97;101269.19;6303000;22;45431;-63
2023/06/16 11:31:08;;;;;;;;;15.00;14.50;;;;;28.19;27.50;101263.69;6304535;22;45382;-63
2023/06/16 11:33:34;;;;;;;;;15.75;12.50;;;;;28.18;27.73;101262.81;6274145;22;45862;-63
2023/06/16 11:36:18;;;;;;;;;11.50;11.25;;;;;28.27;27.20;101272.03;6300716;22;45415;-64
2023/06/16 11:38:45;;;;;;;;;16.00;16.00;;;;;28.31;27.50;101272.59;6306486;22;45405;-63
2023/06/16 11:41:22;;;;;;;;;12.00;12.00;;;;;28.34;27.85;101277.78;6306519;22;45304;-63
2023/06/16 11:43:50;;;;;;;;;13.25;12.50;;;;;28.37;27.23;101261.88;6306372;22;46909;-63
2023/06/16 11:46:18;;;;;;;;;13.75;12.75;;;;;28.41;26.98;101273.41;6307407;22;45500;-63
2023/06/16 11:48:44;;;;;;;;;13.00;13.00;;;;;28.37;27.47;101255.53;6307628;22;45354;-63
2023/06/16 11:51:10;;;;;;;;;14.00;12.00;;;;;28.42;27.28;101265.00;6308236;22;45323;-63
2023/06/16 11:53:36;;;;;;;;;13.25;13.25;;;;;28.42;27.09;101262.28;6307704;22;45373;-63
2023/06/16 11:56:06;;;;;;;;;12.75;12.50;;;;;28.35;27.18;101241.94;6306564;22;45332;-63
2023/06/16 11:58:32;;;;;;;;;16.25;14.25;;;;;28.44;26.80;101257.47;6300887;22;45433;-63
2023/06/16 12:01:00;;;;;;;;;15.50;14.75;;;;;28.39;26.86;101250.72;6275999;22;45408;-63
2023/06/16 12:03:31;;;;;;;;;14.25;14.25;;;;;28.42;26.38;101248.53;6303744;22;45751;-63
2023/06/16 12:05:57;;;;;;;;;14.75;13.25;;;;;28.48;26.49;101249.78;6303484;22;45527;-63
2023/06/16 12:08:36;;;;;;;;;13.00;12.25;;;;;28.50;26.61;101242.28;6301679;22;45631;-63
2023/06/16 12:11:01;;;;;;;;;14.50;13.75;;;;;28.49;27.11;101235.06;6303064;22;45378;-63
2023/06/16 12:13:29;;;;;;;;;11.75;11.75;;;;;28.57;26.44;101242.56;6304015;22;45720;-64
2023/06/16 12:15:54;;;;;;;;;13.00;13.00;;;;;28.54;26.89;101231.84;6303868;22;45386;-63
2023/06/16 12:18:20;;;;;;;;;13.75;12.50;;;;;28.50;26.94;101224.94;6303614;22;45438;-63
2023/06/16 12:20:45;;;;;;;;;14.25;13.25;;;;;28.56;26.24;101238.06;6302703;22;45584;-63
2023/06/16 12:23:11;;;;;;;;;13.25;13.25;;;;;28.52;27.38;101220.13;6296050;22;50755;-63
2023/06/16 12:25:36;;;;;;;;;13.25;11.50;;;;;28.62;27.16;101231.97;6273943;22;45661;-63
2023/06/16 12:28:03;;;;;;;;;16.75;14.25;;;;;28.67;26.57;101235.13;6274557;22;45686;-63
2023/06/16 12:30:33;;;;;;;;;14.25;13.50;;;;;28.68;25.93;101230.47;6301040;22;45517;-63
2023/06/16 12:33:08;;;;;;;;;0.75;0.75;;;;;28.58;26.08;101214.06;6302790;22;45876;-63
2023/06/16 12:35:33;;;;;;;;;12.25;12.00;;;;;28.68;26.39;101222.22;6302951;22;45389;-63
2023/06/16 12:37:58;;;;;;;;;12.25;12.25;;;;;28.67;26.30;101223.25;6302321;22;45295;-63
2023/06/16 12:40:33;;;;;;;;;13.75;13.75;;;;;28.54;26.74;101198.91;6302592;22;45478;-63
2023/06/16 12:43:21;;;;;;;;;13.75;13.75;;;;;28.65;26.53;101217.91;6302586;22;45621;-63
2023/06/16 12:45:46;;;;;;;;;15.00;14.50;;;;;28.66;26.07;101222.38;6302069;22;45544;-63
2023/06/16 12:48:12;;;;;;;;;11.50;11.50;;;;;28.68;26.39;101225.84;6301118;22;45408;-63
2023/06/16 12:50:37;;;;;;;;;12.75;12.75;;;;;28.68;25.92;101219.47;6302540;22;59384;-63
2023/06/16 12:53:04;;;;;;;;;15.75;14.75;;;;;28.68;26.31;101214.84;6302037;22;52232;-63
2023/06/16 12:55:30;;;;;;;;;12.25;12.25;;;;;28.69;25.73;101210.25;6302371;22;45615;-63
2023/06/16 12:57:56;;;;;;;;;15.00;14.00;;;;;28.68;25.66;101203.00;6302307;22;45405;-63
2023/06/16 13:00:21;;;;;;;;;13.25;12.75;;;;;28.74;26.04;101210.63;6302087;22;45490;-63
2023/06/16 13:02:47;;;;;;;;;13.50;12.50;;;;;28.74;26.12;101211.47;6302455;22;45536;-63
2023/06/16 13:05:12;;;;;;;;;14.50;13.50;;;;;28.67;26.09;101195.78;6275614;22;45428;-63
2023/06/16 13:07:38;;;;;;;;;13.25;12.00;;;;;28.73;26.00;101201.50;6302228;22;46511;-63
2023/06/16 13:10:03;;;;;;;;;13.25;13.25;;;;;28.76;26.67;101203.09;6302825;22;45590;-63
2023/06/16 13:12:29;;;;;;;;;13.00;13.00;;;;;28.79;25.78;101202.78;6274701;22;47143;-63
2023/06/16 13:14:54;;;;;;;;;12.25;12.00;;;;;28.82;25.68;101206.06;6302844;22;45598;-63
2023/06/16 13:17:19;;;;;;;;;14.75;14.75;;;;;28.78;26.09;101187.28;6301754;22;45638;-63
2023/06/16 13:19:45;;;;;;;;;14.50;13.75;;;;;28.82;25.67;101177.75;6302012;22;45645;-63
2023/06/16 13:22:10;;;;;;;;;10.50;10.50;;;;;28.91;26.54;101189.66;6273654;22;46434;-63
2023/06/16 13:24:37;;;;;;;;;14.75;14.25;;;;;28.91;25.30;101192.41;6298940;22;54303;-63
2023/06/16 13:27:02;;;;;;;;;14.50;11.25;;;;;28.96;25.92;101198.28;6272990;22;45598;-63
2023/06/16 13:29:27;;;;;;;;;14.50;13.50;;;;;28.92;26.33;101194.09;6273872;22;45478;-63
2023/06/16 13:31:54;;;;;;;;;12.75;11.50;;;;;28.98;25.58;101196.22;6301884;22;46463;-63
2023/06/16 13:34:19;;;;;;;;;13.50;13.25;;;;;29.03;25.56;101199.34;6302041;22;45465;-63
2023/06/16 13:36:45;;;;;;;;;16.25;14.25;;;;;29.07;26.51;101198.03;6274806;22;45481;-63
2023/06/16 13:39:10;;;;;;;;;15.75;15.75;;;;;29.02;26.26;101186.66;6274130;22;45369;-63
2023/06/16 13:41:36;;;;;;;;;12.75;12.75;;;;;29.10;25.59;101189.47;6302270;22;45639;-63
2023/06/16 13:44:01;;;;;;;;;15.00;14.25;;;;;29.11;25.91;101182.09;6301925;22;45358;-63
2023/06/16 13:46:28;;;;;;;;;12.00;12.00;;;;;29.07;25.94;101175.16;6300245;22;45826;-63
2023/06/16 13:48:53;;;;;;;;;11.50;11.50;;;;;29.15;25.26;101184.34;6302223;22;45382;-63
2023/06/16 13:51:18;;;;;;;;;15.75;13.50;;;;;29.06;25.47;101170.72;6302630;22;45918;-63
2023/06/16 13:53:44;;;;;;;;;12.50;12.50;;;;;29.12;25.28;101181.91;6301080;22;45724;-63
2023/06/16 13:56:10;;;;;;;;;13.00;12.50;;;;;29.13;25.91;101180.88;6302787;22;45404;-63
2023/06/16 13:58:35;;;;;;;;;13.50;13.50;;;;;29.17;25.18;101175.97;6274422;22;45474;-63
2023/06/16 14:01:01;;;;;;;;;16.25;16.25;;;;;29.19;25.95;101171.19;6300595;22;46919;-63
2023/06/16 14:03:27;;;;;;;;;17.00;16.75;;;;;29.21;25.51;101179.25;6302144;22;45406;-63
2023/06/16 14:05:54;;;;;;;;;11.00;10.00;;;;;29.24;25.50;101174.31;6301301;22;45372;-63
2023/06/16 14:08:20;;;;;;;;;14.75;13.25;;;;;29.23;25.43;101163.47;6298403;22;45743;-63
2023/06/16 14:10:46;;;;;;;;;13.25;12.75;;;;;29.25;25.67;101161.41;6302030;22;46128;-63
2023/06/16 14:13:12;;;;;;;;;8.25;8.25;;;;;29.31;25.58;101155.28;6301923;22;45272;-63
2023/06/16 14:15:37;;;;;;;;;18.25;15.25;;;;;29.28;25.53;101145.44;6303008;22;45536;-63
2023/06/16 14:18:02;;;;;;;;;12.25;12.25;;;;;29.35;26.11;101148.41;6302324;22;45588;-63
2023/06/16 14:20:28;;;;;;;;;14.00;14.00;;;;;29.40;25.52;101153.44;6301619;22;46109;-63
2023/06/16 14:22:53;;;;;;;;;15.50;14.50;;;;;29.41;25.51;101157.91;6273195;22;45380;-63
2023/06/16 14:25:19;;;;;;;;;13.75;13.75;;;;;29.34;25.29;101153.06;6299159;22;45737;-64
2023/06/16 14:27:44;;;;;;;;;14.25;13.25;;;;;29.30;25.09;101139.78;6300445;22;45336;-64
2023/06/16 14:30:11;;;;;;;;;16.75;16.75;;;;;29.31;25.73;101138.78;6300121;22;46048;-63
2023/06/16 14:32:39;;;;;;;;;13.50;12.50;;;;;29.28;25.82;101128.94;6274323;22;45682;-63
2023/06/16 14:35:05;;;;;;;;;15.75;14.75;;;;;29.38;25.82;101139.84;6301324;22;45893;-63
2023/06/16 14:37:31;;;;;;;;;16.25;15.00;;;;;29.45;25.37;101140.91;6301680;22;45406;-63
2023/06/16 14:39:57;;;;;;;;;13.75;12.75;;;;;29.38;25.24;101129.69;6301990;22;45446;-63
2023/06/16 14:42:26;;;;;;;;;15.75;14.25;;;;;29.42;25.81;101130.25;6301958;22;45390;-63
2023/06/16 14:44:51;;;;;;;;;12.25;11.75;;;;;29.42;25.13;101122.00;6301864;22;45804;-64
2023/06/16 14:47:17;;;;;;;;;14.50;14.50;;;;;29.48;25.31;101129.56;6299464;22;45410;-64
2023/06/16 14:49:44;;;;;;;;;17.00;17.00;;;;;29.55;25.81;101135.28;6301776;22;46242;-63
2023/06/16 14:52:09;;;;;;;;;15.50;14.50;;;;;29.50;25.40;101121.16;6301384;22;45819;-63
2023/06/16 14:54:34;;;;;;;;;17.50;14.25;;;;;29.58;25.88;101134.97;6300333;22;45404;-63
2023/06/16 14:57:00;;;;;;;;;13.50;11.75;;;;;29.59;25.63;101127.56;6300016;22;46278;-63
2023/06/16 14:59:26;;;;;;;;;18.25;14.75;;;;;29.60;24.87;101132.91;6300367;22;45348;-63
2023/06/16 15:01:51;;;;;;;;;13.50;13.50;;;;;29.56;25.26;101120.50;6301509;22;45602;-63
2023/06/16 15:04:17;;;;;;;;;16.00;15.25;;;;;29.56;25.20;101117.75;6291576;22;45333;-63
2023/06/16 15:06:43;;;;;;;;;14.25;13.50;;;;;29.51;25.15;101118.25;6297615;22;45711;-63
2023/06/16 15:09:08;;;;;;;;;15.25;14.25;;;;;29.60;25.03;101126.53;6298043;22;48556;-63
2023/06/16 15:11:34;;;;;;;;;14.00;14.00;;;;;29.56;25.30;101115.00;6299392;22;45556;-63
2023/06/16 15:14:00;;;;;;;;;14.00;13.25;;;;;29.58;25.00;101118.47;6300942;22;45803;-63
2023/06/16 15:16:26;;;;;;;;;11.00;9.25;;;;;29.61;24.83;101118.13;6300273;22;45543;-63
2023/06/16 15:18:52;;;;;;;;;13.75;13.75;;;;;29.53;25.18;101099.69;6300332;22;45496;-63
2023/06/16 15:21:17;;;;;;;;;11.00;10.50;;;;;29.52;25.06;101100.75;6273685;22;45734;-63
2023/06/16 15:23:43;;;;;;;;;13.25;13.25;;;;;29.62;24.62;101113.47;6301167;22;45728;-63
2023/06/16 15:26:08;;;;;;;;;13.75;13.75;;;;;29.56;25.19;101095.75;6303255;22;45508;-63
2023/06/16 15:28:34;;;;;;;;;13.75;13.50;;;;;29.55;25.20;101091.28;6300214;22;47146;-63
2023/06/16 15:30:59;;;;;;;;;13.25;12.75;;;;;29.56;24.22;101102.13;6302780;22;45426;-63
2023/06/16 15:33:25;;;;;;;;;12.00;11.75;;;;;29.57;24.88;101103.00;6302670;22;45695;-63
2023/06/16 15:35:50;;;;;;;;;13.00;13.00;;;;;29.58;24.56;101101.94;6303158;22;45597;-63
2023/06/16 15:38:16;;;;;;;;;15.50;15.00;;;;;29.58;24.37;101101.94;6274801;22;47566;-63
2023/06/16 15:40:41;;;;;;;;;12.50;11.25;;;;;29.54;24.51;101095.06;6275114;22;45407;-63
2023/06/16 15:43:09;;;;;;;;;11.50;8.50;;;;;29.59;24.77;101098.19;6303672;22;45599;-63
2023/06/16 15:45:35;;;;;;;;;14.25;12.25;;;;;29.56;24.95;101077.38;6302842;22;45402;-63
2023/06/16 15:48:00;;;;;;;;;11.50;11.50;;;;;29.60;24.63;101082.53;6302673;22;45826;-63
2023/06/16 15:50:27;;;;;;;;;14.00;12.50;;;;;29.67;24.97;101089.09;6303116;22;45432;-63
2023/06/16 15:52:52;;;;;;;;;12.00;12.00;;;;;29.65;24.23;101089.25;6275206;22;45917;-63
2023/06/16 15:55:18;;;;;;;;;16.25;15.25;;;;;29.70;24.68;101095.13;6302508;22;45463;-63
2023/06/16 15:57:43;;;;;;;;;11.00;11.00;;;;;29.65;24.61;101094.75;6303191;22;45675;-63
2023/06/16 16:00:09;;;;;;;;;16.00;14.50;;;;;29.67;24.74;101095.47;6305240;22;45558;-63
2023/06/16 16:02:35;;;;;;;;;12.75;12.75;;;;;29.64;24.80;101084.78;6307013;22;45374;-63
2023/06/16 16:05:00;;;;;;;;;11.50;11.50;;;;;29.59;24.94;101072.56;6277412;22;45548;-63
2023/06/16 16:07:29;;;;;;;;;15.75;13.75;;;;;29.46;24.73;101054.63;6306666;22;45698;-63
2023/06/16 16:09:55;;;;;;;;;16.00;13.50;;;;;29.51;24.72;101068.75;6306110;22;45423;-63
2023/06/16 16:12:20;;;;;;;;;13.50;13.00;;;;;29.48;24.88;101065.47;6278505;22;45318;-63
2023/06/16 16:14:46;;;;;;;;;13.50;11.00;;;;;29.56;24.21;101088.38;6306876;22;45379;-63
2023/06/16 16:17:12;;;;;;;;;15.75;14.25;;;;;29.48;24.16;101081.97;6306448;22;46344;-63
2023/06/16 16:19:38;;;;;;;;;11.75;10.00;;;;;29.49;24.47;101090.06;6306827;22;45926;-64
2023/06/16 16:22:06;;;;;;;;;12.50;12.50;;;;;29.47;24.52;101080.25;6278846;22;45322;-63
2023/06/16 16:24:31;;;;;;;;;12.00;12.00;;;;;29.40;24.95;101071.78;6306721;22;45280;-63
2023/06/16 16:26:57;;;;;;;;;15.00;15.00;;;;;29.33;24.97;101063.34;6306537;22;45280;-63
2023/06/16 16:29:27;;;;;;;;;13.00;13.00;;;;;29.40;24.77;101062.69;6306648;22;45367;-64
2023/06/16 16:31:53;;;;;;;;;17.00;15.50;;;;;29.49;24.94;101064.47;6304892;22;45400;-64
2023/06/16 16:34:18;;;;;;;;;12.50;12.50;;;;;29.38;24.76;101049.97;6305938;22;45574;-63
2023/06/16 16:36:43;;;;;;;;;10.00;10.00;;;;;29.35;24.66;101038.44;6305878;22;45378;-63
2023/06/16 16:39:09;;;;;;;;;12.75;11.50;;;;;29.47;24.93;101055.50;6304157;22;45686;-63
2023/06/16 16:41:34;;;;;;;;;12.75;12.75;;;;;29.38;24.76;101041.72;6305093;22;45398;-64
2023/06/16 16:44:00;;;;;;;;;14.00;13.00;;;;;29.35;24.61;101036.56;6306579;22;45389;-63
2023/06/16 16:46:26;;;;;;;;;11.00;10.75;;;;;29.35;24.72;101036.56;6307342;22;45538;-63
2023/06/16 16:48:51;;;;;;;;;14.00;14.00;;;;;29.38;24.86;101049.09;6304327;22;45511;-64
2023/06/16 16:51:16;;;;;;;;;9.25;9.25;;;;;29.34;25.39;101045.81;6301921;22;45460;-64
2023/06/16 16:53:42;;;;;;;;;14.25;12.75;;;;;29.45;25.24;101068.56;6300865;22;45522;-64
2023/06/16 16:56:07;;;;;;;;;14.00;12.25;;;;;29.33;24.77;101055.09;6272676;22;46903;-65
2023/06/16 16:58:35;;;;;;;;;11.50;11.50;;;;;29.30;25.41;101041.69;6300600;22;45421;-66
2023/06/16 17:01:01;;;;;;;;;12.00;11.00;;;;;29.30;25.35;101052.69;6301757;22;45641;-66
2023/06/16 17:03:26;;;;;;;;;14.00;12.75;;;;;29.23;25.34;101037.00;6274013;22;45668;-65
2023/06/16 17:05:51;;;;;;;;;14.00;13.50;;;;;29.21;25.18;101044.56;6273731;22;47264;-65
2023/06/16 17:08:17;;;;;;;;;14.00;13.75;;;;;29.23;25.08;101053.50;6303176;22;45813;-65
2023/06/16 17:10:43;;;;;;;;;12.00;12.00;;;;;29.07;25.37;101035.00;6303005;22;45425;-65
2023/06/16 17:13:09;;;;;;;;;16.00;16.00;;;;;29.09;25.78;101032.97;6303831;22;45723;-66
2023/06/16 17:15:35;;;;;;;;;12.25;12.00;;;;;29.11;25.87;101051.00;6275324;22;46128;-66
2023/06/16 17:18:00;;;;;;;;;15.00;14.25;;;;;29.09;25.29;101042.06;6302852;22;45395;-65
2023/06/16 17:20:26;;;;;;;;;12.50;12.00;;;;;29.06;25.19;101047.03;6303032;22;45427;-64
2023/06/16 17:22:51;;;;;;;;;14.00;14.00;;;;;29.07;25.44;101048.75;6303919;22;45677;-65
2023/06/16 17:25:17;;;;;;;;;14.25;14.25;;;;;29.07;25.51;101057.00;6303544;22;46354;-65
2023/06/16 17:27:42;;;;;;;;;14.50;14.50;;;;;29.08;25.33;101056.81;6275839;22;45398;-64
2023/06/16 17:38:00;;;;;;;;;;;;;;;;;;;;;
2023/06/16 17:47:09;;;;;;;;;15.00;15.00;;;;;28.89;25.46;101057.06;6239298;22;46405;-86
2023/06/16 17:49:35;;;;;;;;;14.50;14.00;;;;;28.99;25.26;101077.06;6280922;22;47041;-86
2023/06/16 17:52:00;;;;;;;;;14.00;13.25;;;;;28.94;25.74;101071.19;6308091;22;45396;-88
2023/06/16 17:54:26;;;;;;;;;14.25;14.25;;;;;28.89;26.00;101059.81;6308124;22;45424;-86
2023/06/16 17:56:51;;;;;;;;;15.50;15.50;;;;;28.90;25.90;101070.66;6307178;22;45309;-88
2023/06/16 17:59:16;;;;;;;;;15.75;14.00;;;;;28.92;25.57;101076.84;6307972;22;45299;-88
2023/06/16 18:01:42;;;;;;;;;15.00;15.00;;;;;28.89;25.89;101068.06;6309510;22;45314;-87
2023/06/16 18:04:08;;;;;;;;;17.00;16.00;;;;;28.85;25.61;101064.75;6307302;22;45629;-87
2023/06/16 18:06:33;;;;;;;;;13.50;13.50;;;;;28.92;25.40;101075.97;6308335;22;45552;-87
2023/06/16 18:08:59;;;;;;;;;13.75;12.25;;;;;28.90;25.43;101078.00;6280733;22;47270;-86
2023/06/16 18:11:24;;;;;;;;;18.25;16.00;;;;;28.90;26.26;101076.16;6309553;22;45313;-87
2023/06/16 18:13:50;;;;;;;;;15.00;15.00;;;;;28.88;25.68;101067.19;6281832;22;45299;-87
2023/06/16 18:16:15;;;;;;;;;11.00;11.00;;;;;28.81;25.36;101058.72;6308423;22;45326;-87
2023/06/16 18:18:41;;;;;;;;;15.25;15.25;;;;;28.82;25.24;101062.34;6280777;22;48256;-86
2023/06/16 18:21:06;;;;;;;;;14.25;12.75;;;;;28.72;25.36;101045.09;6307375;22;45754;-85
2023/06/16 18:23:33;;;;;;;;;14.25;14.25;;;;;28.76;25.25;101046.50;6308001;22;45916;-86
2023/06/16 18:25:58;;;;;;;;;13.75;13.00;;;;;28.70;25.47;101038.91;6306647;22;45295;-85
2023/06/16 18:28:23;;;;;;;;;13.25;13.25;;;;;28.66;25.81;101038.38;6307666;22;45994;-85
2023/06/16 18:30:49;;;;;;;;;14.50;14.50;;;;;28.75;25.83;101062.13;6280149;22;45346;-88
2023/06/16 18:33:15;;;;;;;;;14.00;13.75;;;;;28.64;26.05;101051.41;6308227;22;45573;-88
2023/06/16 18:35:40;;;;;;;;;15.00;14.50;;;;;28.64;25.44;101055.00;6280003;22;45381;-89
2023/06/16 18:38:06;;;;;;;;;13.25;12.75;;;;;28.71;25.66;101066.22;6308293;22;45870;-88
2023/06/16 18:40:31;;;;;;;;;16.00;16.00;;;;;28.71;25.70;101068.97;6309028;22;45298;-86
2023/06/16 18:42:57;;;;;;;;;15.00;15.00;;;;;28.70;25.29;101067.25;6306983;22;45410;-86
2023/06/16 18:45:22;;;;;;;;;15.50;14.25;;;;;28.58;25.29;101052.88;6309105;22;45365;-89
2023/06/16 18:47:48;;;;;;;;;15.75;14.00;;;;;28.64;26.05;101070.63;6307624;22;45283;-88
2023/06/16 18:50:13;;;;;;;;;14.25;14.25;;;;;28.63;25.63;101064.28;6308044;22;45568;-88
2023/06/16 18:52:39;;;;;;;;;15.50;13.00;;;;;28.56;25.15;101063.19;6305253;22;45697;-82
2023/06/16 18:55:06;;;;;;;;;13.00;12.25;;;;;28.55;25.25;101055.06;6278965;22;46196;-82